Terminal Aerodrome Forecast
Issued by NWS

Home | Current Version | Previous Version | Text Only | Print | Product List | Glossary On
Versions: 1 2 3 4 5 6 7 8 9 10 11 12 13 14 15 16 17 18 19 20 21 22 23 24 25 26 27 28 29 30 31 32
432
FTUS46 KLOX 191107 AAC
TAFLAX
TAF AMD
KLAX 191107Z 1911/2012 VRB03KT 1/4SM FG VV002
     FM191200 13006KT 1/2SM FG VV002
      TEMPO 1912/1914 1/4SM FG
     FM191500 10005KT 2SM BR OVC003
     FM191700 VRB03KT 4SM BR OVC005
     FM191800 23007KT P6SM BKN025 BKN050
     FM192100 26012KT P6SM BKN050
     FM200400 VRB03KT P6SM BKN050
     FM200900 34008KT P6SM BKN050=

USA.gov is the U.S. government's official web portal to all federal, state and local government web resources and services.